Evanston Uinta County Burns Field
KEVW : rendu visible

Aérodrome :











RETROUVEZ-NOUS SUR...

 
LOGIN :

S'inscrire | Disclaimer

   EN    FR    IT 

 









Légende :    VFR   VFR Marginal   IFR   IFR Intensif   IFR Très Intensif
Visi : 
Plafond : 
>= 8 km
>= 3000ft
5 à 8 km
1000 à 3000 ft
1500m à 5 km
500 à 1000 ft
800 à 1500m
200 à 500 ft
< 800m
< 200 ft
Symboles :   Orages  Brouillard  Fortes neiges  Fortes précipitations  Vent > 20 kt






- Altitude de l'aérodrome : 7143 ft


KEVW - Evanston Uinta County Burns Field

DERNIER METAR :
  • 030753Z AUTO 18004KT 10SM FEW120 16/M01 A3022 RMK AO2 SLP133 T01611011

METARs EXPIRÉS :
  • 030653Z AUTO 09007KT 10SM SCT120 15/00 A3021 RMK AO2 SLP128 T01500000 402560100

TAF KEVW
Valide du 03 à 06h jusqu'au 04 à 06h UTC


030538Z 0306/0406 17007KT P6SM SCT100
FM031600 23007KT P6SM SKC
FM031900 23014G24KT P6SM SKC
FM040300 16006KT P6SM FEW120
FIR KZLC / Amérique du Nord



MET'MAP, la Météo Aéronautique d'un coup d'oeil ! - Copyright ORBIFLY Décembre 2007 - Disclaimer

ORBIFLY MET'MAP TEAM :

Programmation & Développement : Alexandra Zaïnal
Sur une idée originale de : Baudouin d'Aumeries
Assistance à la programmation : Marc-Olivier Méhu
Soutien technique & logistique : Manuel Goepfert

Contact : metmap@orbifly.com




SOURCES & CREDITS :

   NOAA       Earth
Advisory